This is the latest recevied weather packets stored in our database for station/object OK1VCF-6. If no packets are shown the sender has not sent any weather packets the latest 10 day(s).
| Time | Temp. | Humidity | Pressure | Rain* | Wind** | Luminosity | Snow |
|---|---|---|---|---|---|---|---|
| 1777900494 | 22.22° C | 50% | 1015.3 hPa | - | - | - | - |
| 1777895091 | 21.67° C | 51% | 1015.8 hPa | - | - | - | - |
| 1777894347 | 21.11° C | 52% | 1015.8 hPa | - | - | - | - |
| 1777894196 | 21.11° C | 52% | 1015.8 hPa | - | - | - | - |
| 1777888785 | 18.89° C | 56% | 1016.5 hPa | - | - | - | - |
| 1777886065 | 18.89° C | 56% | 1016.6 hPa | - | - | - | - |
| 1777885406 | 17.78° C | 57% | 1016.8 hPa | - | - | - | - |
| 1777885151 | 17.78° C | 57% | 1016.8 hPa | - | - | - | - |
| 1777877892 | 14.44° C | 66% | 1015.7 hPa | - | - | - | - |
| 1777876979 | 13.33° C | 66% | 1016.4 hPa | - | - | - | - |
| 1777842684 | 14.44° C | 56% | 1016.9 hPa | - | - | - | - |
| 1777830050 | 18.89° C | 43% | 1016 hPa | - | - | - | - |
| 1777820142 | 22.22° C | 38% | 1016.8 hPa | - | - | - | - |
| 1777806631 | 20° C | 44% | 1019.2 hPa | - | - | - | - |
| 1777800313 | 17.78° C | 48% | 1020 hPa | - | - | - | - |
| 1777792180 | 14.44° C | 54% | 1020.3 hPa | - | - | - | - |
| 1777781360 | 8.33° C | 72% | 1020.2 hPa | - | - | - | - |
| 1777780452 | 8.33° C | 71% | 1020 hPa | - | - | - | - |
| 1777768715 | 10° C | 66% | 1020.5 hPa | - | - | - | - |
| 1777736739 | 22.22° C | 34% | 1022.4 hPa | - | - | - | - |
| 1777736277 | 22.22° C | 34% | 1022.4 hPa | - | - | - | - |
| 1777735940 | 21.11° C | 34% | 1022.4 hPa | - | - | - | - |
| 1777735376 | 21.11° C | 34% | 1022.4 hPa | - | - | - | - |
| 1777721855 | 20° C | 33% | 1024.8 hPa | - | - | - | - |
| 1777711051 | 16.11° C | 48% | 1026.4 hPa | - | - | - | - |
* Rain since midnight (hover to see other rain measurements)
** Current wind speed in m/s (hover to see current wind gust speed)